Time;durP1;ratioP1;P1;durP2;ratioP2;P2;SDS_P1;SDS_P2;PMS_P1;PMS_P2;Temp;Humidity;BMP_temperature;BMP_pressure;BME280_temperature;BME280_humidity;BME280_pressure;Samples;Min_cycle;Max_cycle;Signal;HPM_P1;HPM_P2
2022/10/15 00:02:08;;;;;;;5.68;5.15;;;13.30;99.90;;;;;;5027225;28;20256;-81
2022/10/15 00:04:33;;;;;;;5.20;4.70;;;13.20;99.90;;;;;;5017770;28;21348;-81
2022/10/15 00:06:59;;;;;;;6.43;5.65;;;13.20;99.90;;;;;;5028926;28;20724;-79
2022/10/15 00:09:25;;;;;;;6.45;5.85;;;13.10;1.00;;;;;;5027811;28;20583;-81
2022/10/15 00:11:51;;;;;;;5.90;5.40;;;13.10;80.20;;;;;;5029004;28;20202;-81
2022/10/15 00:14:16;;;;;;;6.57;5.85;;;13.10;1.00;;;;;;5026935;28;20221;-81
2022/10/15 00:16:42;;;;;;;6.70;6.20;;;13.10;99.90;;;;;;5029498;28;20230;-81
2022/10/15 00:19:09;;;;;;;6.78;6.10;;;13.00;99.90;;;;;;5029111;28;20647;-82
2022/10/15 00:21:35;;;;;;;6.90;6.30;;;12.90;99.90;;;;;;5028525;28;20190;-81
2022/10/15 00:24:01;;;;;;;6.97;6.30;;;12.90;1.00;;;;;;5026942;28;20202;-81
2022/10/15 00:26:29;;;;;;;6.57;5.97;;;12.90;4.60;;;;;;5027234;28;20206;-81
2022/10/15 00:28:57;;;;;;;7.43;6.70;;;12.90;99.90;;;;;;5027648;28;20201;-81
2022/10/15 00:31:25;;;;;;;7.38;6.78;;;13.00;99.90;;;;;;5027267;28;20557;-79
2022/10/15 00:33:52;;;;;;;6.72;6.05;;;13.00;1.00;;;;;;5028628;28;20338;-79
2022/10/15 00:36:20;;;;;;;7.07;6.47;;;13.00;1.00;;;;;;5026497;28;20211;-81
2022/10/15 00:38:46;;;;;;;6.90;6.30;;;13.00;1.00;;;;;;5027133;28;20179;-80
2022/10/15 00:41:24;;;;;;;7.32;6.63;;;13.00;1.00;;;;;;5028315;28;20198;-81
2022/10/15 00:43:55;;;;;;;6.97;6.38;;;13.00;1.00;;;;;;5027070;28;20203;-81
2022/10/15 00:46:26;;;;;;;7.43;6.78;;;13.00;1.00;;;;;;5027933;28;20274;-79
2022/10/15 00:49:13;;;;;;;6.95;6.35;;;13.00;1.00;;;;;;5027005;28;20197;-81
2022/10/15 00:51:46;;;;;;;7.22;6.63;;;13.00;1.00;;;;;;5026854;28;20183;-79
2022/10/15 00:54:13;;;;;;;7.75;7.03;;;13.00;1.00;;;;;;5019772;28;20211;-80
2022/10/15 00:56:41;;;;;;;6.82;6.22;;;13.00;1.00;;;;;;5027777;28;20203;-81
2022/10/15 00:59:10;;;;;;;6.50;5.90;;;13.00;1.00;;;;;;5026160;28;20211;-81
2022/10/15 01:01:35;;;;;;;6.97;6.28;;;13.00;99.90;;;;;;5027861;28;20203;-79
2022/10/15 01:04:03;;;;;;;6.30;5.70;;;13.00;99.90;;;;;;5032403;28;20241;-81
2022/10/15 01:06:29;;;;;;;6.57;6.07;;;13.00;99.90;;;;;;5031998;28;20258;-81
2022/10/15 01:08:55;;;;;;;6.53;5.95;;;13.00;99.90;;;;;;5032185;28;20690;-81
2022/10/15 01:11:36;;;;;;;6.93;6.32;;;13.30;1.00;;;;;;5031826;28;20241;-79
2022/10/15 01:14:21;;;;;;;6.13;5.63;;;13.10;1.00;;;;;;5030500;28;20214;-79
2022/10/15 01:16:53;;;;;;;6.30;5.70;;;13.10;1.00;;;;;;5027575;28;20230;-81
2022/10/15 01:19:31;;;;;;;7.10;6.40;;;13.00;99.90;;;;;;5031704;28;20202;-81
2022/10/15 01:22:05;;;;;;;6.13;5.53;;;13.00;1.00;;;;;;5032006;28;20635;-81
2022/10/15 01:25:00;;;;;;;7.53;6.82;;;13.00;1.00;;;;;;5031489;28;20201;-81
2022/10/15 01:27:34;;;;;;;7.30;6.60;;;13.00;1.00;;;;;;5021122;28;20602;-81
2022/10/15 01:30:24;;;;;;;7.32;6.38;;;13.00;1.00;;;;;;5030309;28;20190;-81
2022/10/15 01:33:12;;;;;;;7.05;6.45;;;13.00;99.90;;;;;;5031684;28;20693;-81
2022/10/15 01:35:56;;;;;;;7.65;6.88;;;13.00;99.90;;;;;;5031233;28;20658;-81
2022/10/15 01:38:43;;;;;;;7.30;6.70;;;13.00;1.00;;;;;;5031874;28;20205;-79
2022/10/15 01:41:32;;;;;;;7.15;6.55;;;13.10;99.90;;;;;;5031752;28;20178;-80
2022/10/15 01:44:16;;;;;;;7.75;6.95;;;13.10;91.50;;;;;;5029100;28;20269;-80
2022/10/15 01:46:44;;;;;;;7.20;6.55;;;13.00;96.30;;;;;;5031649;28;20179;-81
2022/10/15 01:49:14;;;;;;;7.70;7.05;;;13.10;58.20;;;;;;5029528;28;20237;-79
2022/10/15 01:51:41;;;;;;;8.63;7.82;;;13.10;1.00;;;;;;5030983;28;20190;-79
2022/10/15 01:54:14;;;;;;;8.07;7.07;;;13.10;1.00;;;;;;5029639;28;20234;-80
2022/10/15 01:56:45;;;;;;;8.77;7.72;;;13.00;1.00;;;;;;5031223;28;20202;-81
2022/10/15 01:59:11;;;;;;;9.10;8.20;;;13.10;1.00;;;;;;5030141;28;20221;-79
2022/10/15 02:01:40;;;;;;;8.30;7.50;;;13.10;1.00;;;;;;5029105;28;20226;-79
2022/10/15 02:04:18;;;;;;;8.35;7.55;;;13.10;51.10;;;;;;5027056;28;20590;-80
2022/10/15 02:06:47;;;;;;;8.85;7.95;;;13.10;99.90;;;;;;5028584;28;20245;-80
2022/10/15 02:09:32;;;;;;;8.15;7.45;;;13.10;99.90;;;;;;5028650;28;20183;-79
2022/10/15 02:11:58;;;;;;;8.60;7.80;;;13.10;99.90;;;;;;5027979;28;20186;-79
2022/10/15 02:14:57;;;;;;;7.65;7.05;;;13.10;99.90;;;;;;5028299;28;20218;-80
2022/10/15 02:17:52;;;;;;;8.10;7.30;;;13.10;99.90;;;;;;5013338;28;20214;-80
2022/10/15 02:20:22;;;;;;;8.25;7.40;;;13.10;99.90;;;;;;5019889;28;20175;-79
2022/10/15 02:23:08;;;;;;;8.10;7.30;;;13.00;99.90;;;;;;5027115;28;20217;-78
2022/10/15 02:25:38;;;;;;;8.00;7.20;;;13.10;1.00;;;;;;5027693;28;20179;-80
2022/10/15 02:28:05;;;;;;;8.43;7.63;;;13.00;1.00;;;;;;5027241;28;20187;-79
2022/10/15 02:30:32;;;;;;;8.48;7.63;;;13.00;1.00;;;;;;5027801;28;20206;-81
2022/10/15 02:32:59;;;;;;;8.00;7.20;;;13.00;94.20;;;;;;5028241;28;20261;-79
2022/10/15 02:35:26;;;;;;;8.40;7.70;;;13.00;99.90;;;;;;5028830;28;20698;-79
2022/10/15 02:37:56;;;;;;;7.68;7.05;;;13.00;99.90;;;;;;5028767;28;20242;-81
2022/10/15 02:40:26;;;;;;;8.00;7.30;;;13.00;34.70;;;;;;5029399;28;20189;-81
2022/10/15 02:42:52;;;;;;;7.88;7.18;;;13.00;1.00;;;;;;5030127;28;20175;-80
2022/10/15 02:45:17;;;;;;;8.18;7.47;;;12.90;1.00;;;;;;5030275;28;20187;-81
2022/10/15 02:47:43;;;;;;;7.60;6.90;;;12.90;99.90;;;;;;5029781;28;20193;-80
2022/10/15 02:50:09;;;;;;;7.97;7.10;;;12.90;99.90;;;;;;5030453;28;20614;-80
2022/10/15 02:52:34;;;;;;;8.98;8.18;;;12.90;1.00;;;;;;5027555;28;20681;-80
2022/10/15 02:55:00;;;;;;;8.30;7.50;;;12.80;1.00;;;;;;5025336;28;20241;-79
2022/10/15 02:57:25;;;;;;;8.98;8.07;;;12.80;1.00;;;;;;5028452;28;20234;-80
2022/10/15 02:59:51;;;;;;;8.60;7.80;;;12.80;1.00;;;;;;5028257;28;20210;-79
2022/10/15 03:02:17;;;;;;;9.35;8.35;;;12.90;99.90;;;;;;5028207;28;20179;-80
2022/10/15 03:04:42;;;;;;;9.25;8.45;;;12.90;1.00;;;;;;5028098;28;20206;-82
2022/10/15 03:07:08;;;;;;;10.13;9.18;;;12.90;99.90;;;;;;5028026;28;20190;-80
2022/10/15 03:09:33;;;;;;;10.38;9.35;;;13.00;99.90;;;;;;5028107;28;20198;-81
2022/10/15 03:11:59;;;;;;;10.85;9.75;;;13.30;1.00;;;;;;5028100;28;20191;-81
2022/10/15 03:14:24;;;;;;;11.38;10.27;;;13.80;1.00;;;;;;5028130;28;20238;-81
2022/10/15 03:16:50;;;;;;;11.38;10.18;;;13.00;99.90;;;;;;5029667;28;20261;-80
2022/10/15 03:19:16;;;;;;;10.18;9.27;;;13.00;1.00;;;;;;5027801;28;20178;-81
2022/10/15 03:21:41;;;;;;;9.68;8.68;;;12.90;1.00;;;;;;5028408;28;20179;-81
2022/10/15 03:24:07;;;;;;;9.30;8.50;;;12.80;1.00;;;;;;5026962;28;20213;-81
2022/10/15 03:26:33;;;;;;;9.35;8.45;;;12.80;1.00;;;;;;5027420;28;20265;-80
2022/10/15 03:28:58;;;;;;;10.02;9.13;;;12.80;99.90;;;;;;5029391;28;20262;-80
2022/10/15 03:31:24;;;;;;;9.73;8.82;;;12.80;1.00;;;;;;5029146;28;20201;-81
2022/10/15 03:33:49;;;;;;;10.57;9.32;;;12.80;1.00;;;;;;5022225;28;20252;-82
2022/10/15 03:36:15;;;;;;;8.95;8.05;;;12.70;1.00;;;;;;5029125;28;20252;-81
2022/10/15 03:38:40;;;;;;;9.18;8.38;;;12.70;1.00;;;;;;5026091;28;20565;-80
2022/10/15 03:41:06;;;;;;;9.75;8.80;;;12.70;99.90;;;;;;5027232;28;20281;-81
2022/10/15 03:43:32;;;;;;;9.77;8.88;;;12.60;99.90;;;;;;5024326;28;20575;-81
2022/10/15 03:46:01;;;;;;;10.23;9.32;;;12.60;1.00;;;;;;5027279;28;20183;-79
2022/10/15 03:48:27;;;;;;;9.50;8.57;;;12.70;99.90;;;;;;5029046;28;21312;-80
2022/10/15 03:50:52;;;;;;;9.65;8.80;;;12.60;99.90;;;;;;5028820;28;20265;-81
2022/10/15 03:53:18;;;;;;;10.45;9.30;;;12.50;1.00;;;;;;5027517;28;20207;-80
2022/10/15 03:55:44;;;;;;;8.05;7.35;;;12.50;99.90;;;;;;5026361;28;20702;-81
2022/10/15 03:58:09;;;;;;;8.95;8.05;;;12.40;1.00;;;;;;5028185;28;20242;-81
2022/10/15 04:00:35;;;;;;;8.27;7.47;;;12.30;1.00;;;;;;5027353;28;20672;-80
2022/10/15 04:03:00;;;;;;;8.55;7.75;;;12.20;1.00;;;;;;5026943;28;20213;-80
2022/10/15 04:05:26;;;;;;;9.70;8.80;;;12.10;1.00;;;;;;5028717;28;20237;-81
2022/10/15 04:07:51;;;;;;;9.18;8.27;;;11.90;99.90;;;;;;5027198;28;20183;-81
2022/10/15 04:10:17;;;;;;;7.65;6.95;;;12.60;1.00;;;;;;5026688;28;20594;-80
2022/10/15 04:12:42;;;;;;;7.40;6.70;;;11.80;99.90;;;;;;5026226;28;20187;-81
2022/10/15 04:15:08;;;;;;;7.88;7.18;;;11.70;1.00;;;;;;5028357;28;20194;-81
2022/10/15 04:17:34;;;;;;;9.32;8.38;;;11.60;1.00;;;;;;5027318;28;20306;-79
2022/10/15 04:20:00;;;;;;;7.50;6.78;;;11.50;1.00;;;;;;5027607;28;20641;-79
2022/10/15 04:22:25;;;;;;;7.88;7.07;;;11.50;1.00;;;;;;5028373;28;20666;-81
2022/10/15 04:24:51;;;;;;;10.20;9.20;;;11.40;1.00;;;;;;5025589;28;20199;-80
2022/10/15 04:27:16;;;;;;;14.13;12.63;;;11.40;99.90;;;;;;5025954;28;20183;-81
2022/10/15 04:29:42;;;;;;;13.55;12.15;;;11.50;99.90;;;;;;5028287;28;20274;-81
2022/10/15 04:32:13;;;;;;;14.05;12.63;;;11.60;99.90;;;;;;5026455;28;20230;-80
2022/10/15 04:34:38;;;;;;;11.90;10.50;;;11.50;75.90;;;;;;5026805;28;20349;-79
2022/10/15 04:37:04;;;;;;;8.93;8.13;;;11.40;99.90;;;;;;5026732;28;20214;-80
2022/10/15 04:39:29;;;;;;;9.27;8.38;;;11.40;99.90;;;;;;5027706;28;20179;-80
2022/10/15 04:41:55;;;;;;;8.63;7.82;;;11.40;45.40;;;;;;5026059;28;20654;-80
2022/10/15 04:44:21;;;;;;;9.10;8.20;;;11.30;1.00;;;;;;5028039;28;20217;-80
2022/10/15 04:46:46;;;;;;;8.93;7.78;;;11.20;1.00;;;;;;5024237;28;20270;-80
2022/10/15 04:49:12;;;;;;;16.27;14.43;;;11.20;99.90;;;;;;5026994;28;20532;-79
2022/10/15 04:51:37;;;;;;;16.98;14.05;;;11.20;1.00;;;;;;5024433;28;20618;-78
2022/10/15 04:54:03;;;;;;;15.75;13.40;;;11.20;99.90;;;;;;5025756;28;20288;-79
2022/10/15 04:56:29;;;;;;;15.38;13.45;;;11.20;99.90;;;;;;5024333;28;20207;-78
2022/10/15 04:58:55;;;;;;;17.17;13.87;;;11.10;99.90;;;;;;5025596;28;21050;-79
2022/10/15 05:01:20;;;;;;;13.80;11.47;;;11.10;99.90;;;;;;5025352;28;20183;-78
2022/10/15 05:03:47;;;;;;;15.00;12.20;;;11.00;99.90;;;;;;5023038;28;20229;-79
2022/10/15 05:06:19;;;;;;;11.33;10.13;;;11.00;99.90;;;;;;5022958;28;20201;-78
2022/10/15 05:08:45;;;;;;;21.67;17.23;;;10.90;99.90;;;;;;5023053;28;20179;-79
2022/10/15 05:11:14;;;;;;;27.57;23.37;;;10.80;99.90;;;;;;5022609;28;20190;-79
2022/10/15 05:13:40;;;;;;;19.33;16.63;;;10.80;99.90;;;;;;5022239;28;20675;-78
2022/10/15 05:16:12;;;;;;;17.43;15.53;;;11.30;99.90;;;;;;5007556;28;20379;-79
2022/10/15 05:18:38;;;;;;;19.67;17.10;;;10.80;99.90;;;;;;5022435;28;20185;-80
2022/10/15 05:21:04;;;;;;;16.07;14.37;;;10.80;99.90;;;;;;5022574;28;20194;-81
2022/10/15 05:23:30;;;;;;;16.93;14.97;;;10.90;99.90;;;;;;5020364;28;20575;-79
2022/10/15 05:25:59;;;;;;;16.77;13.17;;;10.90;99.90;;;;;;5023657;28;20230;-80
2022/10/15 05:28:25;;;;;;;16.63;13.20;;;11.00;1.00;;;;;;5026405;28;20750;-80
2022/10/15 05:30:50;;;;;;;15.37;13.20;;;11.20;1.00;;;;;;5024859;28;20190;-81
2022/10/15 05:33:16;;;;;;;16.37;13.63;;;11.30;1.00;;;;;;5025921;28;20211;-79
2022/10/15 05:35:42;;;;;;;17.70;14.10;;;10.90;1.00;;;;;;5025485;28;20175;-80
2022/10/15 05:38:07;;;;;;;18.77;14.47;;;10.80;1.00;;;;;;5025321;28;20203;-81
2022/10/15 05:40:33;;;;;;;19.57;15.53;;;10.80;1.00;;;;;;5025305;28;20262;-80
2022/10/15 05:42:58;;;;;;;16.97;13.90;;;10.90;3.50;;;;;;5027393;28;20207;-80
2022/10/15 05:45:24;;;;;;;17.33;14.40;;;10.90;59.90;;;;;;5025977;28;20670;-79
2022/10/15 05:47:54;;;;;;;17.07;14.03;;;11.10;99.90;;;;;;5026362;28;20274;-80
2022/10/15 05:50:19;;;;;;;16.55;13.25;;;10.90;99.90;;;;;;5031095;28;20175;-80
2022/10/15 05:52:45;;;;;;;15.23;12.90;;;10.80;99.90;;;;;;5028885;28;20190;-79
2022/10/15 05:55:10;;;;;;;15.17;13.23;;;11.10;99.90;;;;;;5030655;28;20195;-80
2022/10/15 05:57:36;;;;;;;17.97;14.70;;;10.80;99.90;;;;;;5029474;28;20590;-81
2022/10/15 06:00:04;;;;;;;17.10;13.95;;;11.00;99.90;;;;;;5030699;28;20183;-80
2022/10/15 06:02:30;;;;;;;18.33;14.10;;;10.80;99.90;;;;;;5029084;28;20179;-81
2022/10/15 06:04:55;;;;;;;18.47;14.77;;;10.80;99.90;;;;;;5030366;28;20705;-79
2022/10/15 06:07:21;;;;;;;18.23;14.97;;;10.70;99.90;;;;;;5028270;28;20186;-80
2022/10/15 06:09:46;;;;;;;19.27;14.50;;;10.80;99.90;;;;;;5028114;28;20179;-78
2022/10/15 06:12:12;;;;;;;19.23;15.03;;;10.70;99.90;;;;;;5028082;28;20237;-79
2022/10/15 06:14:37;;;;;;;17.87;14.57;;;10.80;99.90;;;;;;5029010;28;20648;-79
2022/10/15 06:17:03;;;;;;;18.23;14.23;;;10.60;99.90;;;;;;5028197;28;20230;-78
2022/10/15 06:19:29;;;;;;;16.03;12.83;;;10.80;99.90;;;;;;5029640;28;20183;-78
2022/10/15 06:21:54;;;;;;;16.17;13.90;;;10.70;99.90;;;;;;5028945;28;20258;-80
2022/10/15 06:24:20;;;;;;;15.57;12.23;;;10.70;99.90;;;;;;5029245;28;20199;-79
2022/10/15 06:26:45;;;;;;;13.83;12.20;;;10.80;99.90;;;;;;5027917;28;20241;-79
2022/10/15 06:29:11;;;;;;;18.00;14.13;;;10.80;99.90;;;;;;5028220;28;20591;-79
2022/10/15 06:31:37;;;;;;;17.93;14.00;;;10.80;99.90;;;;;;5028894;28;20183;-79
2022/10/15 06:34:02;;;;;;;18.65;15.23;;;11.00;99.90;;;;;;5021526;28;20705;-79
2022/10/15 06:36:28;;;;;;;19.03;14.37;;;11.00;99.90;;;;;;5027121;28;20257;-79
2022/10/15 06:38:53;;;;;;;20.17;15.05;;;11.10;99.90;;;;;;5028922;28;20643;-81
2022/10/15 06:41:19;;;;;;;16.85;13.98;;;11.20;99.90;;;;;;5027606;28;20266;-79
2022/10/15 06:43:48;;;;;;;16.42;14.35;;;11.40;99.90;;;;;;5028129;28;20690;-79
2022/10/15 06:46:13;;;;;;;17.23;14.02;;;11.40;99.90;;;;;;5029430;28;20210;-79
2022/10/15 06:48:39;;;;;;;14.98;13.05;;;11.50;99.90;;;;;;5028929;28;20233;-78
2022/10/15 06:51:05;;;;;;;15.25;13.63;;;11.70;99.90;;;;;;5025525;28;20206;-80
2022/10/15 06:53:30;;;;;;;14.45;12.80;;;11.70;99.90;;;;;;5028118;28;20213;-79
2022/10/15 06:55:57;;;;;;;13.30;11.73;;;11.80;99.90;;;;;;5025384;28;20305;-80
2022/10/15 06:58:23;;;;;;;14.00;12.43;;;11.90;99.90;;;;;;5024953;28;20630;-79
2022/10/15 07:00:49;;;;;;;15.07;13.27;;;12.00;99.90;;;;;;5025083;28;20179;-80
2022/10/15 07:03:14;;;;;;;14.23;12.10;;;12.10;99.90;;;;;;5024261;28;20202;-79
2022/10/15 07:05:40;;;;;;;14.25;12.75;;;12.20;37.20;;;;;;5025120;28;20729;-80
2022/10/15 07:08:05;;;;;;;12.30;11.00;;;12.60;1.00;;;;;;5026709;28;20191;-80
2022/10/15 07:10:31;;;;;;;12.88;11.52;;;12.30;1.00;;;;;;5027787;28;20188;-79
2022/10/15 07:13:00;;;;;;;12.27;10.98;;;12.60;1.70;;;;;;5024836;28;20611;-79
2022/10/15 07:15:29;;;;;;;11.15;10.05;;;12.60;99.90;;;;;;5024898;28;20572;-81
2022/10/15 07:17:56;;;;;;;11.60;10.50;;;12.70;1.00;;;;;;5024423;28;20226;-81
2022/10/15 07:20:22;;;;;;;11.52;10.52;;;12.80;1.00;;;;;;5021454;28;20183;-81
2022/10/15 07:22:48;;;;;;;10.95;9.85;;;12.90;1.00;;;;;;5040777;28;21073;-80
2022/10/15 07:25:14;;;;;;;12.15;10.95;;;13.20;1.00;;;;;;5026586;28;20187;-81
2022/10/15 07:27:40;;;;;;;12.57;11.38;;;13.00;1.00;;;;;;5025256;28;20183;-81
2022/10/15 07:30:07;;;;;;;12.30;10.80;;;13.20;1.00;;;;;;5026589;28;20197;-79
2022/10/15 07:32:33;;;;;;;11.63;10.52;;;13.40;1.00;;;;;;5025157;28;20187;-80
2022/10/15 07:34:58;;;;;;;13.05;10.98;;;13.60;99.90;;;;;;5026372;28;20230;-80
2022/10/15 07:37:24;;;;;;;11.05;9.95;;;13.80;99.90;;;;;;5026624;28;20288;-80
2022/10/15 07:39:49;;;;;;;11.65;10.55;;;13.90;1.00;;;;;;5023680;28;20182;-80
2022/10/15 07:42:15;;;;;;;11.68;10.55;;;14.10;1.00;;;;;;5026057;28;20663;-81
2022/10/15 07:44:41;;;;;;;12.10;10.90;;;14.30;1.00;;;;;;5026456;28;20195;-81
2022/10/15 07:47:06;;;;;;;11.23;10.20;;;14.40;1.00;;;;;;5026340;28;21126;-80
2022/10/15 07:49:32;;;;;;;11.05;10.15;;;14.50;1.00;;;;;;5024649;28;20277;-80
2022/10/15 07:51:58;;;;;;;10.57;9.60;;;14.60;99.90;;;;;;5024909;28;20187;-80
2022/10/15 07:54:23;;;;;;;10.55;9.65;;;14.60;99.90;;;;;;5021794;28;20213;-82
2022/10/15 07:56:49;;;;;;;10.40;9.50;;;14.60;99.90;;;;;;5026038;28;20226;-81
2022/10/15 07:59:14;;;;;;;11.30;10.23;;;14.60;99.90;;;;;;5025968;28;20195;-79
2022/10/15 08:01:40;;;;;;;11.90;10.80;;;14.60;99.90;;;;;;5024589;28;20189;-79
2022/10/15 08:04:05;;;;;;;11.05;10.02;;;14.60;99.90;;;;;;5025627;28;20679;-82
2022/10/15 08:06:31;;;;;;;10.68;9.77;;;14.70;99.90;;;;;;5024586;28;20183;-81
2022/10/15 08:08:57;;;;;;;11.00;10.00;;;14.80;99.90;;;;;;5024492;28;20186;-79
2022/10/15 08:11:23;;;;;;;11.02;9.85;;;15.00;99.90;;;;;;5025482;28;20229;-81
2022/10/15 08:13:50;;;;;;;11.30;10.30;;;15.20;99.90;;;;;;5024341;28;20301;-80
2022/10/15 08:16:18;;;;;;;11.20;10.20;;;15.30;99.90;;;;;;5023977;28;20270;-79
2022/10/15 08:18:44;;;;;;;11.48;10.48;;;15.30;99.90;;;;;;5025139;28;20183;-81
2022/10/15 08:21:11;;;;;;;10.98;9.93;;;15.20;99.90;;;;;;5025413;28;20189;-80
2022/10/15 08:23:37;;;;;;;11.40;10.35;;;15.30;99.90;;;;;;5025387;28;20206;-83
2022/10/15 08:26:03;;;;;;;10.98;9.98;;;15.30;99.90;;;;;;5024655;28;20191;-80
2022/10/15 08:28:30;;;;;;;10.82;9.80;;;15.40;99.90;;;;;;5009313;28;20183;-82
2022/10/15 08:30:57;;;;;;;9.93;9.02;;;15.50;99.90;;;;;;5022342;28;20197;-81
2022/10/15 08:33:23;;;;;;;9.77;8.98;;;15.60;99.90;;;;;;5022609;28;20202;-80
2022/10/15 08:35:49;;;;;;;10.52;9.50;;;16.00;99.90;;;;;;5024316;28;20198;-83
2022/10/15 08:38:15;;;;;;;9.88;8.82;;;16.10;97.10;;;;;;5024269;28;20260;-80
2022/10/15 08:40:50;;;;;;;10.85;9.85;;;16.30;85.00;;;;;;5022070;28;20182;-80
2022/10/15 08:43:25;;;;;;;10.98;9.88;;;16.40;41.30;;;;;;5024256;28;20202;-80
2022/10/15 08:45:55;;;;;;;10.00;9.10;;;16.50;23.80;;;;;;5026919;28;20171;-81
2022/10/15 08:48:29;;;;;;;11.00;10.05;;;16.70;17.60;;;;;;5024909;28;20266;-82
2022/10/15 08:51:24;;;;;;;10.15;9.25;;;16.60;1.00;;;;;;5025584;28;20210;-82
2022/10/15 08:54:02;;;;;;;9.57;8.73;;;16.80;1.00;;;;;;5025229;28;20257;-81
2022/10/15 08:56:44;;;;;;;9.73;8.93;;;17.10;1.00;;;;;;5025361;28;20193;-83
2022/10/15 08:59:21;;;;;;;9.45;8.55;;;17.40;1.00;;;;;;5026700;28;20179;-82
2022/10/15 09:02:24;;;;;;;11.75;10.65;;;17.60;1.00;;;;;;5025326;28;20196;-84
2022/10/15 09:05:02;;;;;;;11.43;10.43;;;17.20;1.00;;;;;;5026385;28;20667;-81
2022/10/15 09:07:38;;;;;;;11.00;10.00;;;17.20;1.00;;;;;;5025178;28;20179;-78
2022/10/15 09:10:40;;;;;;;11.88;10.82;;;17.40;1.00;;;;;;5025668;28;20550;-78
2022/10/15 09:13:15;;;;;;;13.85;12.65;;;17.50;1.00;;;;;;4991153;28;20214;-77
2022/10/15 09:15:50;;;;;;;13.65;12.32;;;17.50;1.00;;;;;;5024103;28;20190;-77
2022/10/15 09:19:32;;;;;;;14.88;13.30;;;17.50;1.00;;;;;;5023063;28;20234;-77
2022/10/15 09:21:34;;;;;;;13.75;12.45;;;17.40;1.00;;;;;;4954656;28;20183;-78
2022/10/15 09:24:01;;;;;;;13.45;12.15;;;17.50;1.00;;;;;;5025046;28;20519;-79
2022/10/15 09:26:51;;;;;;;13.98;12.50;;;17.60;1.00;;;;;;5026773;28;20183;-79
2022/10/15 09:29:25;;;;;;;12.85;11.55;;;17.50;1.00;;;;;;5026310;28;20195;-79
2022/10/15 09:32:31;;;;;;;12.15;10.95;;;17.40;1.00;;;;;;5027076;28;20175;-79
2022/10/15 09:35:23;;;;;;;10.63;9.65;;;17.50;1.00;;;;;;5026139;28;20199;-78
2022/10/15 09:38:11;;;;;;;10.65;9.65;;;17.30;1.00;;;;;;5017804;28;20687;-78
2022/10/15 09:40:55;;;;;;;9.73;8.82;;;17.30;1.00;;;;;;5025129;28;20189;-77
2022/10/15 09:43:29;;;;;;;10.02;9.00;;;17.50;1.00;;;;;;5025971;28;20191;-77
2022/10/15 09:45:55;;;;;;;9.43;8.57;;;17.80;1.00;;;;;;5026864;28;20257;-79
2022/10/15 09:48:22;;;;;;;9.77;8.88;;;17.70;1.00;;;;;;5026674;28;20261;-79
2022/10/15 09:51:09;;;;;;;7.80;7.10;;;17.80;1.00;;;;;;5025114;28;20209;-77
2022/10/15 09:53:49;;;;;;;9.02;8.23;;;17.80;1.00;;;;;;5027067;28;20690;-79
2022/10/15 09:56:22;;;;;;;7.93;7.13;;;18.10;1.00;;;;;;5024731;28;20197;-76
2022/10/15 09:58:55;;;;;;;8.00;7.35;;;18.20;1.00;;;;;;5025653;28;20673;-78
2022/10/15 10:01:26;;;;;;;7.93;7.22;;;18.10;1.00;;;;;;5024487;28;20182;-76
2022/10/15 10:04:09;;;;;;;9.18;8.32;;;18.10;1.00;;;;;;5024593;28;20203;-78
2022/10/15 10:06:46;;;;;;;8.73;7.93;;;18.10;1.00;;;;;;5025896;28;20820;-76
2022/10/15 10:09:19;;;;;;;10.02;9.13;;;18.00;1.00;;;;;;5024833;28;20183;-77
2022/10/15 10:11:51;;;;;;;9.07;8.13;;;18.20;1.00;;;;;;5025508;28;20180;-78
2022/10/15 10:14:54;;;;;;;8.70;8.00;;;18.40;1.00;;;;;;5025343;28;20202;-79
2022/10/15 10:17:22;;;;;;;8.80;8.02;;;18.40;1.00;;;;;;4988083;28;20476;-78
2022/10/15 10:20:16;;;;;;;9.35;8.55;;;18.60;1.00;;;;;;5025802;28;20678;-78
2022/10/15 10:22:45;;;;;;;8.48;7.53;;;18.50;1.00;;;;;;5025288;28;20179;-78
2022/10/15 10:25:41;;;;;;;8.20;7.50;;;18.20;1.00;;;;;;5024977;28;20945;-79
2022/10/15 10:28:12;;;;;;;7.45;6.75;;;18.20;1.00;;;;;;5025541;28;20183;-78
2022/10/15 10:30:52;;;;;;;6.65;6.10;;;18.20;1.00;;;;;;5023945;28;20780;-79
2022/10/15 10:33:29;;;;;;;7.47;6.88;;;18.50;1.00;;;;;;5023392;28;20748;-78
2022/10/15 10:35:56;;;;;;;7.53;6.93;;;18.60;1.00;;;;;;5024583;28;20202;-83
2022/10/15 10:38:28;;;;;;;5.88;5.38;;;18.40;1.00;;;;;;5023131;28;20210;-84
2022/10/15 10:40:58;;;;;;;5.72;5.20;;;18.30;1.00;;;;;;5026652;28;20182;-84
2022/10/15 10:43:26;;;;;;;5.30;4.90;;;18.30;1.00;;;;;;5026464;28;20206;-83
2022/10/15 10:45:52;;;;;;;5.55;5.05;;;18.40;1.00;;;;;;5024105;28;20179;-83
2022/10/15 10:48:36;;;;;;;4.97;4.57;;;18.50;1.00;;;;;;5025912;28;20186;-83
2022/10/15 10:51:12;;;;;;;5.07;4.68;;;18.70;1.00;;;;;;5025818;28;20178;-80
2022/10/15 10:53:59;;;;;;;4.57;4.18;;;19.10;1.00;;;;;;5023694;28;20202;-80
2022/10/15 10:56:37;;;;;;;4.57;4.20;;;18.70;1.00;;;;;;5023539;28;20210;-81
2022/10/15 10:59:31;;;;;;;4.68;4.30;;;18.50;1.00;;;;;;5023271;28;20206;-81
2022/10/15 11:01:57;;;;;;;4.82;4.43;;;18.40;1.00;;;;;;5024354;28;20233;-80
2022/10/15 11:04:31;;;;;;;4.13;3.83;;;18.20;1.00;;;;;;5023027;28;20771;-80
2022/10/15 11:07:04;;;;;;;4.47;4.07;;;18.20;1.00;;;;;;5023280;28;20210;-80
2022/10/15 11:09:29;;;;;;;4.38;4.07;;;18.50;1.00;;;;;;5021947;28;20217;-80
2022/10/15 11:12:13;;;;;;;4.05;3.75;;;18.70;1.00;;;;;;5023926;28;20616;-80
2022/10/15 11:14:42;;;;;;;3.97;3.67;;;18.80;1.00;;;;;;5022397;28;20225;-80
2022/10/15 11:17:21;;;;;;;3.92;3.63;;;18.80;1.00;;;;;;5024000;28;20578;-81
2022/10/15 11:20:04;;;;;;;4.50;4.20;;;18.50;1.00;;;;;;5025988;28;20210;-81
2022/10/15 11:22:43;;;;;;;4.57;4.15;;;18.20;1.00;;;;;;5025210;28;20734;-80
2022/10/15 11:25:30;;;;;;;4.57;4.18;;;18.00;1.00;;;;;;5024848;28;20186;-81
2022/10/15 11:28:22;;;;;;;4.28;3.60;;;17.90;1.00;;;;;;5025506;28;20175;-80
2022/10/15 11:30:57;;;;;;;3.60;3.40;;;18.10;1.00;;;;;;5023552;28;20187;-81
2022/10/15 11:33:39;;;;;;;3.60;3.28;;;18.30;1.00;;;;;;5024547;28;20225;-79
2022/10/15 11:36:17;;;;;;;2.83;2.63;;;18.50;1.00;;;;;;5023065;28;20226;-82
2022/10/15 11:39:10;;;;;;;2.45;2.25;;;18.60;1.00;;;;;;5024421;28;20297;-79
2022/10/15 11:41:56;;;;;;;2.38;2.17;;;18.30;1.00;;;;;;5024193;28;20183;-82
2022/10/15 11:44:41;;;;;;;1.70;1.60;;;18.20;1.00;;;;;;5024367;28;20230;-82
2022/10/15 11:47:31;;;;;;;1.25;1.20;;;18.30;1.00;;;;;;5023487;28;20190;-81
2022/10/15 11:50:31;;;;;;;1.50;1.40;;;18.10;1.00;;;;;;5024050;28;20206;-80
2022/10/15 11:53:23;;;;;;;1.20;1.10;;;18.00;1.00;;;;;;5022531;28;20175;-82
2022/10/15 11:56:01;;;;;;;1.00;0.90;;;18.50;1.00;;;;;;5023892;28;20569;-80
2022/10/15 11:58:39;;;;;;;1.25;0.80;;;18.60;1.00;;;;;;5023989;28;20221;-80
2022/10/15 12:01:29;;;;;;;0.95;0.90;;;18.60;1.00;;;;;;5023979;28;20186;-82
2022/10/15 12:04:15;;;;;;;0.90;0.70;;;18.40;1.00;;;;;;5023775;28;20195;-81
2022/10/15 12:06:45;;;;;;;0.80;0.80;;;18.30;1.00;;;;;;5023796;28;20174;-80
2022/10/15 12:09:19;;;;;;;1.58;1.17;;;18.20;1.00;;;;;;5023902;28;20246;-80
2022/10/15 12:11:54;;;;;;;0.88;0.88;;;18.10;1.00;;;;;;5022209;28;20179;-82
2022/10/15 12:14:26;;;;;;;1.77;0.90;;;18.30;1.00;;;;;;5022086;28;20257;-80
2022/10/15 12:17:07;;;;;;;1.00;0.70;;;18.40;1.00;;;;;;5022572;28;20199;-81
2022/10/15 12:19:42;;;;;;;0.73;0.73;;;18.50;1.00;;;;;;5021632;28;20454;-82
2022/10/15 12:22:11;;;;;;;1.25;1.00;;;18.50;1.00;;;;;;5023465;28;20265;-80
2022/10/15 12:24:36;;;;;;;0.80;0.80;;;18.30;1.00;;;;;;5023310;28;20703;-82
2022/10/15 12:27:21;;;;;;;1.00;1.00;;;18.20;1.00;;;;;;5023379;28;20191;-80
2022/10/15 12:30:02;;;;;;;1.33;0.93;;;17.90;1.00;;;;;;5011763;28;20545;-79
2022/10/15 12:32:35;;;;;;;1.23;1.13;;;17.80;1.00;;;;;;5023020;28;20666;-79
2022/10/15 12:35:03;;;;;;;1.70;1.60;;;17.80;1.00;;;;;;5020964;28;20716;-79
2022/10/15 12:37:33;;;;;;;1.60;1.50;;;17.90;1.00;;;;;;5022846;28;20215;-81
2022/10/15 12:40:22;;;;;;;1.50;1.40;;;18.10;1.00;;;;;;5022987;28;20187;-79
2022/10/15 12:43:00;;;;;;;2.00;1.55;;;18.10;1.00;;;;;;5021636;28;20167;-81
2022/10/15 12:45:38;;;;;;;1.92;1.60;;;18.30;1.00;;;;;;5022869;28;20621;-80
2022/10/15 12:48:04;;;;;;;1.60;1.48;;;18.50;1.00;;;;;;5021913;28;20187;-80
2022/10/15 12:50:32;;;;;;;1.83;1.40;;;18.80;1.00;;;;;;5023009;28;20204;-82
2022/10/15 12:53:05;;;;;;;1.65;1.55;;;19.00;99.90;;;;;;5022224;28;20187;-79
2022/10/15 12:55:39;;;;;;;3.08;2.78;;;19.10;1.00;;;;;;5023075;28;20182;-79
2022/10/15 12:58:31;;;;;;;3.03;2.20;;;19.00;1.00;;;;;;5024334;28;20289;-79
2022/10/15 13:00:57;;;;;;;3.22;2.83;;;18.80;1.00;;;;;;5025769;28;20677;-79
2022/10/15 13:03:35;;;;;;;2.85;2.65;;;18.60;1.00;;;;;;5027097;28;20207;-80
2022/10/15 13:06:21;;;;;;;3.08;2.88;;;18.40;1.00;;;;;;5025929;28;20174;-79
2022/10/15 13:08:48;;;;;;;2.80;2.60;;;18.10;1.00;;;;;;5008946;28;20187;-82